Airfield :
LOGIN :

Register | Disclaimer

   EN    FR    IT 

 










Legend :    VFR   Marginal VFR   IFR   Intensive IFR   Very Intensive IFR
Visi :
Ceiling :
>= 8 km
>= 3000ft
5 to 8 km
1000 to 3000 ft
1500m to 5 km
500 to 1000 ft
800 to 1500m
200 to 500 ft
< 800m
< 200 ft
Symbols :   Thunderstorms  Fog  Heavy snow  Heavy precipitations  Wind > 20 kt
SIGMETs :     Misc.  Thunderstorms  Icing  Turbulence  Mountain Waves  Volcanic Ashes






- Airport Elevation : 33 ft
- IATA code : MHZ


EGUN - RAF Mildenhall

CURRENT METAR :
  • 200056Z 00000KT 9999 CLR 06/05 A2968 RMK AO2A SLP054 WND DATA ESTMD ALSTG ESTMD T00620048 $

EXPIRED METARs :
  • 192356Z 00000KT 9999 CLR 07/05 A2967 RMK AO2A SLP051 WND DATA ESTMD ALSTG ESTMD T00660052 10114 20066 401400066 52016 $
  • 192256Z 22007KT 9999 CLR 07/05 A2966 RMK AO2A SLP047 WND DATA ESTMD ALSTG ESTMD T00670052 $

TAF TAF EGUN
Valid from the 19 at 20:00 until the 21 at 02:00 UTC


192000Z 1920/2102 23009KT 9999 FEW070 QNH2960INS
BECMG 2000/2001 27006KT 5000 BR SKC QNH2968INS
TEMPO 2001/2008 3200 BR
BECMG 2007/2008 32009KT 9999 NSW BKN008 QNH2979INS
BECMG 2012/2013 34012KT 9999 BKN010 QNH2982INS
BECMG 2019/2020 35006KT 9999 SCT010 QNH2988INS TX11/2014Z TN06/2004Z



MET'MAP, your aeronautical weather chart ! - Copyright ORBIFLY December 2007 - Disclaimer

ORBIFLY MET'MAP TEAM :

Programming & Development : Alexandra Zaïnal
Concept & Development : Baudouin d'Aumeries
Co-Development & Prog : Marc-Olivier Méhu
Technical & hardware support : Manuel Goepfert

Contact : metmap@orbifly.com




SOURCES & CREDITS :

   NOAA